sensor_id;sensor_type;location;lat;lon;timestamp;P1;durP1;ratioP1;P2;durP2;ratioP2
84923;SDS011;75286;52.218;5.180;2024-02-23T00:00:37;8.85;;;1.85;;
84923;SDS011;75286;52.218;5.180;2024-02-23T00:03:02;12.57;;;1.95;;
84923;SDS011;75286;52.218;5.180;2024-02-23T00:05:30;6.47;;;1.85;;
84923;SDS011;75286;52.218;5.180;2024-02-23T00:07:56;12.32;;;2.28;;
84923;SDS011;75286;52.218;5.180;2024-02-23T00:10:22;12.05;;;1.48;;
84923;SDS011;75286;52.218;5.180;2024-02-23T00:12:47;12.07;;;1.60;;
84923;SDS011;75286;52.218;5.180;2024-02-23T00:15:13;12.98;;;2.13;;
84923;SDS011;75286;52.218;5.180;2024-02-23T00:17:38;5.88;;;1.67;;
84923;SDS011;75286;52.218;5.180;2024-02-23T00:20:05;7.85;;;1.73;;
84923;SDS011;75286;52.218;5.180;2024-02-23T00:22:32;11.00;;;2.65;;
84923;SDS011;75286;52.218;5.180;2024-02-23T00:24:58;10.00;;;1.90;;
84923;SDS011;75286;52.218;5.180;2024-02-23T00:27:24;10.40;;;2.50;;
84923;SDS011;75286;52.218;5.180;2024-02-23T00:29:49;8.63;;;1.40;;
84923;SDS011;75286;52.218;5.180;2024-02-23T00:32:15;11.20;;;1.98;;
84923;SDS011;75286;52.218;5.180;2024-02-23T00:34:40;10.43;;;1.92;;
84923;SDS011;75286;52.218;5.180;2024-02-23T00:37:05;4.68;;;1.40;;
84923;SDS011;75286;52.218;5.180;2024-02-23T00:39:33;9.98;;;1.98;;
84923;SDS011;75286;52.218;5.180;2024-02-23T00:41:58;10.50;;;1.65;;
84923;SDS011;75286;52.218;5.180;2024-02-23T00:44:23;7.97;;;1.88;;
84923;SDS011;75286;52.218;5.180;2024-02-23T00:46:49;5.63;;;1.70;;
84923;SDS011;75286;52.218;5.180;2024-02-23T00:49:14;10.32;;;1.80;;
84923;SDS011;75286;52.218;5.180;2024-02-23T00:51:40;7.78;;;2.00;;
84923;SDS011;75286;52.218;5.180;2024-02-23T00:54:05;10.15;;;1.80;;
84923;SDS011;75286;52.218;5.180;2024-02-23T00:56:32;8.73;;;1.95;;
84923;SDS011;75286;52.218;5.180;2024-02-23T00:58:58;10.10;;;1.67;;
84923;SDS011;75286;52.218;5.180;2024-02-23T01:01:24;12.63;;;2.10;;
84923;SDS011;75286;52.218;5.180;2024-02-23T01:03:51;10.93;;;2.67;;
84923;SDS011;75286;52.218;5.180;2024-02-23T01:06:17;8.90;;;1.52;;
84923;SDS011;75286;52.218;5.180;2024-02-23T01:08:42;7.60;;;2.78;;
84923;SDS011;75286;52.218;5.180;2024-02-23T01:11:08;11.88;;;1.63;;
84923;SDS011;75286;52.218;5.180;2024-02-23T01:13:33;7.45;;;1.48;;
84923;SDS011;75286;52.218;5.180;2024-02-23T01:15:58;9.00;;;1.30;;
84923;SDS011;75286;52.218;5.180;2024-02-23T01:18:24;10.45;;;2.00;;
84923;SDS011;75286;52.218;5.180;2024-02-23T01:20:49;10.27;;;1.48;;
84923;SDS011;75286;52.218;5.180;2024-02-23T01:23:15;9.40;;;1.67;;
84923;SDS011;75286;52.218;5.180;2024-02-23T01:25:40;7.78;;;2.10;;
84923;SDS011;75286;52.218;5.180;2024-02-23T01:28:05;10.77;;;2.95;;
84923;SDS011;75286;52.218;5.180;2024-02-23T01:30:31;8.35;;;1.98;;
84923;SDS011;75286;52.218;5.180;2024-02-23T01:32:56;11.50;;;1.90;;
84923;SDS011;75286;52.218;5.180;2024-02-23T01:35:22;6.20;;;1.42;;
84923;SDS011;75286;52.218;5.180;2024-02-23T01:37:47;6.95;;;1.10;;
84923;SDS011;75286;52.218;5.180;2024-02-23T01:40:12;5.05;;;0.88;;
84923;SDS011;75286;52.218;5.180;2024-02-23T01:42:38;8.25;;;1.55;;
84923;SDS011;75286;52.218;5.180;2024-02-23T01:45:03;8.73;;;1.33;;
84923;SDS011;75286;52.218;5.180;2024-02-23T01:47:29;4.95;;;1.30;;
84923;SDS011;75286;52.218;5.180;2024-02-23T01:49:55;7.47;;;1.52;;
84923;SDS011;75286;52.218;5.180;2024-02-23T01:52:24;7.60;;;1.40;;
84923;SDS011;75286;52.218;5.180;2024-02-23T01:54:49;5.10;;;1.27;;
84923;SDS011;75286;52.218;5.180;2024-02-23T01:57:15;7.50;;;1.15;;
84923;SDS011;75286;52.218;5.180;2024-02-23T01:59:41;6.38;;;1.35;;
84923;SDS011;75286;52.218;5.180;2024-02-23T02:02:07;5.60;;;0.95;;
84923;SDS011;75286;52.218;5.180;2024-02-23T02:04:32;6.00;;;1.15;;
84923;SDS011;75286;52.218;5.180;2024-02-23T02:06:58;5.88;;;1.30;;
84923;SDS011;75286;52.218;5.180;2024-02-23T02:09:25;9.05;;;1.80;;
84923;SDS011;75286;52.218;5.180;2024-02-23T02:11:51;4.00;;;1.02;;
84923;SDS011;75286;52.218;5.180;2024-02-23T02:14:17;7.20;;;1.60;;
84923;SDS011;75286;52.218;5.180;2024-02-23T02:16:43;6.60;;;0.93;;
84923;SDS011;75286;52.218;5.180;2024-02-23T02:19:11;7.47;;;1.45;;
84923;SDS011;75286;52.218;5.180;2024-02-23T02:21:38;8.50;;;1.20;;
84923;SDS011;75286;52.218;5.180;2024-02-23T02:24:04;8.00;;;1.08;;
84923;SDS011;75286;52.218;5.180;2024-02-23T02:26:30;2.88;;;0.90;;
84923;SDS011;75286;52.218;5.180;2024-02-23T02:28:55;7.07;;;1.42;;
84923;SDS011;75286;52.218;5.180;2024-02-23T02:31:21;4.70;;;1.20;;
84923;SDS011;75286;52.218;5.180;2024-02-23T02:33:46;7.25;;;1.15;;
84923;SDS011;75286;52.218;5.180;2024-02-23T02:36:12;8.70;;;2.13;;
84923;SDS011;75286;52.218;5.180;2024-02-23T02:38:37;7.22;;;1.45;;
84923;SDS011;75286;52.218;5.180;2024-02-23T02:41:03;6.18;;;1.83;;
84923;SDS011;75286;52.218;5.180;2024-02-23T02:43:29;4.00;;;1.27;;
84923;SDS011;75286;52.218;5.180;2024-02-23T02:45:55;6.28;;;1.80;;
84923;SDS011;75286;52.218;5.180;2024-02-23T02:48:22;10.40;;;1.85;;
84923;SDS011;75286;52.218;5.180;2024-02-23T02:50:50;7.45;;;1.38;;
84923;SDS011;75286;52.218;5.180;2024-02-23T02:53:16;6.28;;;1.33;;
84923;SDS011;75286;52.218;5.180;2024-02-23T02:59:33;7.47;;;1.40;;
84923;SDS011;75286;52.218;5.180;2024-02-23T03:02:00;7.22;;;1.15;;
84923;SDS011;75286;52.218;5.180;2024-02-23T03:04:25;7.65;;;1.85;;
84923;SDS011;75286;52.218;5.180;2024-02-23T03:06:50;8.90;;;1.60;;
84923;SDS011;75286;52.218;5.180;2024-02-23T03:09:16;4.90;;;1.17;;
84923;SDS011;75286;52.218;5.180;2024-02-23T03:11:41;6.78;;;1.67;;
84923;SDS011;75286;52.218;5.180;2024-02-23T03:14:06;7.45;;;2.15;;
84923;SDS011;75286;52.218;5.180;2024-02-23T03:16:32;8.10;;;1.08;;
84923;SDS011;75286;52.218;5.180;2024-02-23T03:18:59;8.68;;;1.30;;
84923;SDS011;75286;52.218;5.180;2024-02-23T03:21:24;5.85;;;1.27;;
84923;SDS011;75286;52.218;5.180;2024-02-23T03:23:50;5.30;;;1.30;;
84923;SDS011;75286;52.218;5.180;2024-02-23T03:26:18;6.22;;;1.33;;
84923;SDS011;75286;52.218;5.180;2024-02-23T03:28:43;10.32;;;1.80;;
84923;SDS011;75286;52.218;5.180;2024-02-23T03:31:09;12.13;;;1.95;;
84923;SDS011;75286;52.218;5.180;2024-02-23T03:33:34;6.97;;;1.23;;
84923;SDS011;75286;52.218;5.180;2024-02-23T03:35:59;6.63;;;1.30;;
84923;SDS011;75286;52.218;5.180;2024-02-23T03:38:28;6.40;;;1.92;;
84923;SDS011;75286;52.218;5.180;2024-02-23T03:40:55;6.63;;;1.67;;
84923;SDS011;75286;52.218;5.180;2024-02-23T03:43:20;8.55;;;1.70;;
84923;SDS011;75286;52.218;5.180;2024-02-23T03:45:46;8.45;;;1.40;;
84923;SDS011;75286;52.218;5.180;2024-02-23T03:48:11;3.15;;;0.85;;
84923;SDS011;75286;52.218;5.180;2024-02-23T03:50:36;5.32;;;1.77;;
84923;SDS011;75286;52.218;5.180;2024-02-23T03:53:02;5.72;;;1.83;;
84923;SDS011;75286;52.218;5.180;2024-02-23T03:55:28;9.48;;;1.50;;
84923;SDS011;75286;52.218;5.180;2024-02-23T03:57:54;6.35;;;1.30;;
84923;SDS011;75286;52.218;5.180;2024-02-23T04:00:19;11.38;;;2.50;;
84923;SDS011;75286;52.218;5.180;2024-02-23T04:02:47;7.45;;;3.15;;
84923;SDS011;75286;52.218;5.180;2024-02-23T04:05:12;6.82;;;1.58;;
84923;SDS011;75286;52.218;5.180;2024-02-23T04:07:37;7.47;;;1.90;;
84923;SDS011;75286;52.218;5.180;2024-02-23T04:10:03;6.95;;;2.03;;
84923;SDS011;75286;52.218;5.180;2024-02-23T04:12:29;15.25;;;2.42;;
84923;SDS011;75286;52.218;5.180;2024-02-23T04:14:56;8.68;;;2.05;;
84923;SDS011;75286;52.218;5.180;2024-02-23T04:17:21;8.88;;;2.15;;
84923;SDS011;75286;52.218;5.180;2024-02-23T04:19:47;4.20;;;1.40;;
84923;SDS011;75286;52.218;5.180;2024-02-23T04:22:12;11.48;;;2.22;;
84923;SDS011;75286;52.218;5.180;2024-02-23T04:24:37;5.97;;;1.45;;
84923;SDS011;75286;52.218;5.180;2024-02-23T04:27:04;7.28;;;1.40;;
84923;SDS011;75286;52.218;5.180;2024-02-23T04:29:30;8.13;;;1.85;;
84923;SDS011;75286;52.218;5.180;2024-02-23T04:31:57;5.68;;;1.25;;
84923;SDS011;75286;52.218;5.180;2024-02-23T04:34:22;8.70;;;1.67;;
84923;SDS011;75286;52.218;5.180;2024-02-23T04:36:48;6.35;;;1.40;;
84923;SDS011;75286;52.218;5.180;2024-02-23T04:39:14;11.65;;;2.35;;
84923;SDS011;75286;52.218;5.180;2024-02-23T04:41:39;8.55;;;1.92;;
84923;SDS011;75286;52.218;5.180;2024-02-23T04:44:04;6.82;;;1.33;;
84923;SDS011;75286;52.218;5.180;2024-02-23T04:46:30;8.85;;;1.92;;
84923;SDS011;75286;52.218;5.180;2024-02-23T04:48:56;5.85;;;1.48;;
84923;SDS011;75286;52.218;5.180;2024-02-23T04:51:21;9.75;;;1.88;;
84923;SDS011;75286;52.218;5.180;2024-02-23T04:53:48;7.50;;;2.20;;
84923;SDS011;75286;52.218;5.180;2024-02-23T04:56:14;7.13;;;1.50;;
84923;SDS011;75286;52.218;5.180;2024-02-23T04:58:39;8.45;;;1.92;;
84923;SDS011;75286;52.218;5.180;2024-02-23T05:01:06;6.13;;;1.80;;
84923;SDS011;75286;52.218;5.180;2024-02-23T05:03:31;10.68;;;2.28;;
84923;SDS011;75286;52.218;5.180;2024-02-23T05:05:57;14.35;;;2.38;;
84923;SDS011;75286;52.218;5.180;2024-02-23T05:08:23;10.60;;;1.95;;
84923;SDS011;75286;52.218;5.180;2024-02-23T05:10:49;7.80;;;2.25;;
84923;SDS011;75286;52.218;5.180;2024-02-23T05:13:16;9.23;;;2.05;;
84923;SDS011;75286;52.218;5.180;2024-02-23T05:15:41;9.88;;;2.95;;
84923;SDS011;75286;52.218;5.180;2024-02-23T05:18:07;8.70;;;2.75;;
84923;SDS011;75286;52.218;5.180;2024-02-23T05:20:32;8.63;;;2.67;;
84923;SDS011;75286;52.218;5.180;2024-02-23T05:22:58;8.70;;;2.67;;
84923;SDS011;75286;52.218;5.180;2024-02-23T05:25:24;6.90;;;2.47;;
84923;SDS011;75286;52.218;5.180;2024-02-23T05:27:53;5.30;;;2.20;;
84923;SDS011;75286;52.218;5.180;2024-02-23T05:30:18;6.43;;;2.28;;
84923;SDS011;75286;52.218;5.180;2024-02-23T05:32:44;16.90;;;3.00;;
84923;SDS011;75286;52.218;5.180;2024-02-23T05:35:09;8.68;;;2.35;;
84923;SDS011;75286;52.218;5.180;2024-02-23T05:37:38;9.02;;;2.85;;
84923;SDS011;75286;52.218;5.180;2024-02-23T05:40:03;7.43;;;2.60;;
84923;SDS011;75286;52.218;5.180;2024-02-23T05:42:35;4.70;;;1.83;;
84923;SDS011;75286;52.218;5.180;2024-02-23T05:45:01;8.20;;;2.05;;
84923;SDS011;75286;52.218;5.180;2024-02-23T05:47:29;7.28;;;2.30;;
84923;SDS011;75286;52.218;5.180;2024-02-23T05:49:57;7.32;;;3.15;;
84923;SDS011;75286;52.218;5.180;2024-02-23T05:52:22;5.70;;;2.50;;
84923;SDS011;75286;52.218;5.180;2024-02-23T05:54:47;8.65;;;4.28;;
84923;SDS011;75286;52.218;5.180;2024-02-23T05:57:13;11.65;;;3.50;;
84923;SDS011;75286;52.218;5.180;2024-02-23T05:59:38;8.20;;;3.40;;
84923;SDS011;75286;52.218;5.180;2024-02-23T06:02:04;7.45;;;3.47;;
84923;SDS011;75286;52.218;5.180;2024-02-23T06:04:29;10.57;;;3.60;;
84923;SDS011;75286;52.218;5.180;2024-02-23T06:06:54;8.48;;;2.83;;
84923;SDS011;75286;52.218;5.180;2024-02-23T06:09:20;8.70;;;3.20;;
84923;SDS011;75286;52.218;5.180;2024-02-23T06:11:46;7.43;;;3.50;;
84923;SDS011;75286;52.218;5.180;2024-02-23T06:14:11;7.82;;;3.20;;
84923;SDS011;75286;52.218;5.180;2024-02-23T06:16:37;7.72;;;3.40;;
84923;SDS011;75286;52.218;5.180;2024-02-23T06:19:02;8.65;;;3.47;;
84923;SDS011;75286;52.218;5.180;2024-02-23T06:21:28;6.82;;;3.72;;
84923;SDS011;75286;52.218;5.180;2024-02-23T06:23:54;8.02;;;3.60;;
84923;SDS011;75286;52.218;5.180;2024-02-23T06:26:20;8.57;;;3.60;;
84923;SDS011;75286;52.218;5.180;2024-02-23T06:28:46;11.23;;;3.67;;
84923;SDS011;75286;52.218;5.180;2024-02-23T06:31:11;8.43;;;2.95;;
84923;SDS011;75286;52.218;5.180;2024-02-23T06:33:37;9.35;;;2.90;;
84923;SDS011;75286;52.218;5.180;2024-02-23T06:36:02;8.02;;;3.60;;
84923;SDS011;75286;52.218;5.180;2024-02-23T06:38:29;9.45;;;3.40;;
84923;SDS011;75286;52.218;5.180;2024-02-23T06:40:54;6.47;;;2.60;;
84923;SDS011;75286;52.218;5.180;2024-02-23T06:43:21;6.97;;;2.97;;
84923;SDS011;75286;52.218;5.180;2024-02-23T06:45:46;6.85;;;2.83;;
84923;SDS011;75286;52.218;5.180;2024-02-23T06:48:12;6.53;;;2.53;;
84923;SDS011;75286;52.218;5.180;2024-02-23T06:50:37;7.35;;;2.72;;
84923;SDS011;75286;52.218;5.180;2024-02-23T06:53:02;8.40;;;3.30;;
84923;SDS011;75286;52.218;5.180;2024-02-23T06:55:28;4.60;;;2.30;;
84923;SDS011;75286;52.218;5.180;2024-02-23T06:57:56;8.40;;;2.63;;
84923;SDS011;75286;52.218;5.180;2024-02-23T07:00:21;7.25;;;2.45;;
84923;SDS011;75286;52.218;5.180;2024-02-23T07:02:47;8.18;;;2.58;;
84923;SDS011;75286;52.218;5.180;2024-02-23T07:05:12;5.18;;;2.25;;
84923;SDS011;75286;52.218;5.180;2024-02-23T07:07:39;9.07;;;2.80;;
84923;SDS011;75286;52.218;5.180;2024-02-23T07:10:05;7.18;;;2.40;;
84923;SDS011;75286;52.218;5.180;2024-02-23T07:12:32;5.97;;;1.83;;
84923;SDS011;75286;52.218;5.180;2024-02-23T07:14:57;8.48;;;2.63;;
84923;SDS011;75286;52.218;5.180;2024-02-23T07:17:23;10.15;;;2.22;;
84923;SDS011;75286;52.218;5.180;2024-02-23T07:19:49;5.63;;;2.17;;
84923;SDS011;75286;52.218;5.180;2024-02-23T07:22:15;5.20;;;1.77;;
84923;SDS011;75286;52.218;5.180;2024-02-23T07:24:43;8.38;;;2.50;;
84923;SDS011;75286;52.218;5.180;2024-02-23T07:27:09;5.68;;;2.17;;
84923;SDS011;75286;52.218;5.180;2024-02-23T07:29:35;5.78;;;2.00;;
84923;SDS011;75286;52.218;5.180;2024-02-23T07:32:00;5.18;;;1.95;;
84923;SDS011;75286;52.218;5.180;2024-02-23T07:34:26;8.32;;;2.38;;
84923;SDS011;75286;52.218;5.180;2024-02-23T07:36:51;5.95;;;1.85;;
84923;SDS011;75286;52.218;5.180;2024-02-23T07:39:17;4.85;;;2.08;;
84923;SDS011;75286;52.218;5.180;2024-02-23T07:41:44;7.93;;;1.77;;
84923;SDS011;75286;52.218;5.180;2024-02-23T07:44:09;8.77;;;1.70;;
84923;SDS011;75286;52.218;5.180;2024-02-23T07:46:35;7.45;;;2.28;;
84923;SDS011;75286;52.218;5.180;2024-02-23T07:49:08;4.18;;;1.88;;
84923;SDS011;75286;52.218;5.180;2024-02-23T07:51:34;4.40;;;1.42;;
84923;SDS011;75286;52.218;5.180;2024-02-23T07:54:00;5.32;;;1.75;;
84923;SDS011;75286;52.218;5.180;2024-02-23T07:56:25;8.25;;;1.40;;
84923;SDS011;75286;52.218;5.180;2024-02-23T07:58:51;3.38;;;1.40;;
84923;SDS011;75286;52.218;5.180;2024-02-23T08:01:16;4.47;;;1.50;;
84923;SDS011;75286;52.218;5.180;2024-02-23T08:03:43;4.03;;;1.30;;
84923;SDS011;75286;52.218;5.180;2024-02-23T08:06:08;7.40;;;1.42;;
84923;SDS011;75286;52.218;5.180;2024-02-23T08:08:34;6.68;;;1.20;;
84923;SDS011;75286;52.218;5.180;2024-02-23T08:11:01;5.65;;;1.80;;
84923;SDS011;75286;52.218;5.180;2024-02-23T08:13:27;5.55;;;1.33;;
84923;SDS011;75286;52.218;5.180;2024-02-23T08:15:53;6.68;;;1.75;;
84923;SDS011;75286;52.218;5.180;2024-02-23T08:18:18;5.85;;;1.27;;
84923;SDS011;75286;52.218;5.180;2024-02-23T08:20:43;8.32;;;1.50;;
84923;SDS011;75286;52.218;5.180;2024-02-23T08:23:09;8.63;;;1.70;;
84923;SDS011;75286;52.218;5.180;2024-02-23T08:25:34;5.35;;;1.30;;
84923;SDS011;75286;52.218;5.180;2024-02-23T08:28:00;7.20;;;1.40;;
84923;SDS011;75286;52.218;5.180;2024-02-23T08:30:26;7.78;;;1.75;;
84923;SDS011;75286;52.218;5.180;2024-02-23T08:32:52;6.47;;;2.53;;
84923;SDS011;75286;52.218;5.180;2024-02-23T08:35:17;6.20;;;1.55;;
84923;SDS011;75286;52.218;5.180;2024-02-23T08:37:43;5.70;;;1.63;;
84923;SDS011;75286;52.218;5.180;2024-02-23T08:40:09;7.18;;;1.67;;
84923;SDS011;75286;52.218;5.180;2024-02-23T08:42:34;3.30;;;1.77;;
84923;SDS011;75286;52.218;5.180;2024-02-23T08:45:00;10.93;;;1.70;;
84923;SDS011;75286;52.218;5.180;2024-02-23T08:47:25;4.28;;;1.77;;
84923;SDS011;75286;52.218;5.180;2024-02-23T08:49:57;5.63;;;2.00;;
84923;SDS011;75286;52.218;5.180;2024-02-23T08:52:22;10.05;;;2.25;;
84923;SDS011;75286;52.218;5.180;2024-02-23T08:54:48;6.60;;;1.98;;
84923;SDS011;75286;52.218;5.180;2024-02-23T08:57:13;9.75;;;2.75;;
84923;SDS011;75286;52.218;5.180;2024-02-23T08:59:42;9.40;;;2.33;;
84923;SDS011;75286;52.218;5.180;2024-02-23T09:02:07;9.70;;;2.13;;
84923;SDS011;75286;52.218;5.180;2024-02-23T09:04:34;8.57;;;1.85;;
84923;SDS011;75286;52.218;5.180;2024-02-23T09:07:00;6.50;;;2.05;;
84923;SDS011;75286;52.218;5.180;2024-02-23T09:09:26;6.95;;;2.05;;
84923;SDS011;75286;52.218;5.180;2024-02-23T09:11:51;5.68;;;1.88;;
84923;SDS011;75286;52.218;5.180;2024-02-23T09:14:17;7.13;;;2.25;;
84923;SDS011;75286;52.218;5.180;2024-02-23T09:16:42;6.28;;;2.20;;
84923;SDS011;75286;52.218;5.180;2024-02-23T09:19:07;8.15;;;2.08;;
84923;SDS011;75286;52.218;5.180;2024-02-23T09:21:33;8.80;;;2.47;;
84923;SDS011;75286;52.218;5.180;2024-02-23T09:23:58;6.38;;;1.80;;
84923;SDS011;75286;52.218;5.180;2024-02-23T09:26:24;5.07;;;1.55;;
84923;SDS011;75286;52.218;5.180;2024-02-23T09:28:49;5.40;;;2.08;;
84923;SDS011;75286;52.218;5.180;2024-02-23T09:31:15;8.65;;;2.58;;
84923;SDS011;75286;52.218;5.180;2024-02-23T09:33:40;10.07;;;2.40;;
84923;SDS011;75286;52.218;5.180;2024-02-23T09:36:06;7.50;;;2.45;;
84923;SDS011;75286;52.218;5.180;2024-02-23T09:38:31;7.38;;;1.65;;
84923;SDS011;75286;52.218;5.180;2024-02-23T09:40:57;7.30;;;1.98;;
84923;SDS011;75286;52.218;5.180;2024-02-23T09:43:23;8.38;;;2.13;;
84923;SDS011;75286;52.218;5.180;2024-02-23T09:45:54;6.80;;;2.13;;
84923;SDS011;75286;52.218;5.180;2024-02-23T09:48:21;6.75;;;2.13;;
84923;SDS011;75286;52.218;5.180;2024-02-23T09:50:47;6.72;;;2.30;;
84923;SDS011;75286;52.218;5.180;2024-02-23T09:53:15;5.68;;;1.55;;
84923;SDS011;75286;52.218;5.180;2024-02-23T09:55:42;4.47;;;1.55;;
84923;SDS011;75286;52.218;5.180;2024-02-23T09:58:10;7.00;;;1.67;;
84923;SDS011;75286;52.218;5.180;2024-02-23T10:00:38;5.50;;;1.90;;
84923;SDS011;75286;52.218;5.180;2024-02-23T10:03:04;6.97;;;2.38;;
84923;SDS011;75286;52.218;5.180;2024-02-23T10:05:30;9.00;;;2.40;;
84923;SDS011;75286;52.218;5.180;2024-02-23T10:07:57;4.88;;;1.52;;
84923;SDS011;75286;52.218;5.180;2024-02-23T10:10:32;7.43;;;1.88;;
84923;SDS011;75286;52.218;5.180;2024-02-23T10:12:59;5.15;;;2.58;;
84923;SDS011;75286;52.218;5.180;2024-02-23T10:15:25;6.43;;;2.05;;
84923;SDS011;75286;52.218;5.180;2024-02-23T10:17:51;5.45;;;2.20;;
84923;SDS011;75286;52.218;5.180;2024-02-23T10:20:16;6.55;;;2.40;;
84923;SDS011;75286;52.218;5.180;2024-02-23T10:22:42;6.00;;;1.83;;
84923;SDS011;75286;52.218;5.180;2024-02-23T10:25:09;6.03;;;2.20;;
84923;SDS011;75286;52.218;5.180;2024-02-23T10:27:34;9.23;;;2.00;;
84923;SDS011;75286;52.218;5.180;2024-02-23T10:29:59;5.05;;;1.70;;
84923;SDS011;75286;52.218;5.180;2024-02-23T10:32:25;8.40;;;2.20;;
84923;SDS011;75286;52.218;5.180;2024-02-23T10:34:54;8.80;;;2.50;;
84923;SDS011;75286;52.218;5.180;2024-02-23T10:37:23;7.20;;;1.92;;
84923;SDS011;75286;52.218;5.180;2024-02-23T10:39:50;5.18;;;1.98;;
84923;SDS011;75286;52.218;5.180;2024-02-23T10:42:22;6.15;;;2.35;;
84923;SDS011;75286;52.218;5.180;2024-02-23T10:44:50;5.47;;;1.85;;
84923;SDS011;75286;52.218;5.180;2024-02-23T10:47:16;7.97;;;2.20;;
84923;SDS011;75286;52.218;5.180;2024-02-23T10:49:41;4.85;;;2.40;;
84923;SDS011;75286;52.218;5.180;2024-02-23T10:52:10;5.97;;;2.08;;
84923;SDS011;75286;52.218;5.180;2024-02-23T10:54:38;4.18;;;2.28;;
84923;SDS011;75286;52.218;5.180;2024-02-23T10:57:04;5.97;;;2.13;;
84923;SDS011;75286;52.218;5.180;2024-02-23T10:59:30;6.18;;;2.85;;
84923;SDS011;75286;52.218;5.180;2024-02-23T11:01:55;6.95;;;1.90;;
84923;SDS011;75286;52.218;5.180;2024-02-23T11:04:24;4.25;;;1.95;;
84923;SDS011;75286;52.218;5.180;2024-02-23T11:06:51;7.95;;;2.13;;
84923;SDS011;75286;52.218;5.180;2024-02-23T11:09:20;6.40;;;2.00;;
84923;SDS011;75286;52.218;5.180;2024-02-23T11:11:56;5.82;;;2.25;;
84923;SDS011;75286;52.218;5.180;2024-02-23T11:14:32;6.07;;;1.73;;
84923;SDS011;75286;52.218;5.180;2024-02-23T11:17:00;7.78;;;2.53;;
84923;SDS011;75286;52.218;5.180;2024-02-23T11:19:33;6.50;;;2.45;;
84923;SDS011;75286;52.218;5.180;2024-02-23T11:22:02;3.67;;;1.48;;
84923;SDS011;75286;52.218;5.180;2024-02-23T11:24:29;11.10;;;2.28;;
84923;SDS011;75286;52.218;5.180;2024-02-23T11:27:01;5.30;;;1.73;;
84923;SDS011;75286;52.218;5.180;2024-02-23T11:29:35;4.95;;;2.05;;
84923;SDS011;75286;52.218;5.180;2024-02-23T11:32:11;4.30;;;1.90;;
84923;SDS011;75286;52.218;5.180;2024-02-23T11:34:55;5.25;;;1.75;;
84923;SDS011;75286;52.218;5.180;2024-02-23T11:37:21;4.40;;;1.85;;
84923;SDS011;75286;52.218;5.180;2024-02-23T11:39:47;7.20;;;2.53;;
84923;SDS011;75286;52.218;5.180;2024-02-23T11:42:13;4.97;;;1.65;;
84923;SDS011;75286;52.218;5.180;2024-02-23T11:44:39;4.72;;;2.10;;
84923;SDS011;75286;52.218;5.180;2024-02-23T11:47:06;6.72;;;2.17;;
84923;SDS011;75286;52.218;5.180;2024-02-23T11:49:32;6.32;;;2.05;;
84923;SDS011;75286;52.218;5.180;2024-02-23T11:51:57;9.05;;;2.70;;
84923;SDS011;75286;52.218;5.180;2024-02-23T11:54:23;6.88;;;1.90;;
84923;SDS011;75286;52.218;5.180;2024-02-23T11:56:49;5.25;;;2.30;;
84923;SDS011;75286;52.218;5.180;2024-02-23T11:59:21;5.35;;;2.03;;
84923;SDS011;75286;52.218;5.180;2024-02-23T12:01:46;7.68;;;2.28;;
84923;SDS011;75286;52.218;5.180;2024-02-23T12:04:13;4.80;;;1.83;;
84923;SDS011;75286;52.218;5.180;2024-02-23T12:06:39;4.07;;;1.75;;
84923;SDS011;75286;52.218;5.180;2024-02-23T12:09:06;7.20;;;2.53;;
84923;SDS011;75286;52.218;5.180;2024-02-23T12:11:33;5.00;;;1.50;;
84923;SDS011;75286;52.218;5.180;2024-02-23T12:13:58;6.22;;;1.90;;
84923;SDS011;75286;52.218;5.180;2024-02-23T12:16:27;6.57;;;1.90;;
84923;SDS011;75286;52.218;5.180;2024-02-23T12:18:53;5.88;;;1.83;;
84923;SDS011;75286;52.218;5.180;2024-02-23T12:21:20;6.22;;;2.00;;
84923;SDS011;75286;52.218;5.180;2024-02-23T12:23:47;9.02;;;1.88;;
84923;SDS011;75286;52.218;5.180;2024-02-23T12:26:14;5.05;;;2.33;;
84923;SDS011;75286;52.218;5.180;2024-02-23T12:28:41;3.50;;;1.73;;
84923;SDS011;75286;52.218;5.180;2024-02-23T12:31:06;4.40;;;1.50;;
84923;SDS011;75286;52.218;5.180;2024-02-23T12:33:33;4.70;;;1.75;;
84923;SDS011;75286;52.218;5.180;2024-02-23T12:36:00;5.93;;;2.00;;
84923;SDS011;75286;52.218;5.180;2024-02-23T12:38:26;6.07;;;1.95;;
84923;SDS011;75286;52.218;5.180;2024-02-23T12:40:52;5.30;;;1.70;;
84923;SDS011;75286;52.218;5.180;2024-02-23T12:43:18;7.07;;;1.88;;
84923;SDS011;75286;52.218;5.180;2024-02-23T12:45:46;3.75;;;1.33;;
84923;SDS011;75286;52.218;5.180;2024-02-23T12:48:14;3.50;;;1.67;;
84923;SDS011;75286;52.218;5.180;2024-02-23T12:50:40;4.78;;;1.40;;
84923;SDS011;75286;52.218;5.180;2024-02-23T12:53:05;5.97;;;1.52;;
84923;SDS011;75286;52.218;5.180;2024-02-23T12:55:31;4.97;;;1.23;;
84923;SDS011;75286;52.218;5.180;2024-02-23T12:57:56;4.90;;;1.30;;
84923;SDS011;75286;52.218;5.180;2024-02-23T13:00:22;3.90;;;1.17;;
84923;SDS011;75286;52.218;5.180;2024-02-23T13:02:47;6.68;;;1.42;;
84923;SDS011;75286;52.218;5.180;2024-02-23T13:05:12;6.00;;;1.35;;
84923;SDS011;75286;52.218;5.180;2024-02-23T13:07:38;4.97;;;1.55;;
84923;SDS011;75286;52.218;5.180;2024-02-23T13:10:05;6.55;;;1.70;;
84923;SDS011;75286;52.218;5.180;2024-02-23T13:12:32;5.93;;;2.10;;
84923;SDS011;75286;52.218;5.180;2024-02-23T13:14:57;3.22;;;1.15;;
84923;SDS011;75286;52.218;5.180;2024-02-23T13:17:23;5.40;;;1.58;;
84923;SDS011;75286;52.218;5.180;2024-02-23T13:19:48;6.35;;;1.88;;
84923;SDS011;75286;52.218;5.180;2024-02-23T13:22:13;10.38;;;1.52;;
84923;SDS011;75286;52.218;5.180;2024-02-23T13:24:39;5.68;;;1.38;;
84923;SDS011;75286;52.218;5.180;2024-02-23T13:27:05;4.18;;;1.40;;
84923;SDS011;75286;52.218;5.180;2024-02-23T13:29:30;8.80;;;1.58;;
84923;SDS011;75286;52.218;5.180;2024-02-23T13:31:56;3.78;;;0.88;;
84923;SDS011;75286;52.218;5.180;2024-02-23T13:34:21;4.95;;;1.15;;
84923;SDS011;75286;52.218;5.180;2024-02-23T13:36:46;6.10;;;1.20;;
84923;SDS011;75286;52.218;5.180;2024-02-23T13:39:12;7.03;;;1.40;;
84923;SDS011;75286;52.218;5.180;2024-02-23T13:41:38;6.13;;;0.98;;
84923;SDS011;75286;52.218;5.180;2024-02-23T13:44:03;5.50;;;1.08;;
84923;SDS011;75286;52.218;5.180;2024-02-23T13:46:29;2.63;;;0.98;;
84923;SDS011;75286;52.218;5.180;2024-02-23T13:49:02;4.90;;;1.08;;
84923;SDS011;75286;52.218;5.180;2024-02-23T13:51:30;5.40;;;1.42;;
84923;SDS011;75286;52.218;5.180;2024-02-23T13:53:58;5.35;;;1.33;;
84923;SDS011;75286;52.218;5.180;2024-02-23T13:56:24;3.58;;;1.10;;
84923;SDS011;75286;52.218;5.180;2024-02-23T13:58:49;3.08;;;0.88;;
84923;SDS011;75286;52.218;5.180;2024-02-23T14:01:15;3.58;;;1.05;;
84923;SDS011;75286;52.218;5.180;2024-02-23T14:03:40;2.63;;;0.70;;
84923;SDS011;75286;52.218;5.180;2024-02-23T14:06:09;6.57;;;1.17;;
84923;SDS011;75286;52.218;5.180;2024-02-23T14:08:34;2.75;;;0.90;;
84923;SDS011;75286;52.218;5.180;2024-02-23T14:11:02;3.90;;;1.02;;
84923;SDS011;75286;52.218;5.180;2024-02-23T14:13:30;5.43;;;0.88;;
84923;SDS011;75286;52.218;5.180;2024-02-23T14:15:56;4.82;;;1.02;;
84923;SDS011;75286;52.218;5.180;2024-02-23T14:18:21;6.32;;;1.42;;
84923;SDS011;75286;52.218;5.180;2024-02-23T14:20:47;1.63;;;0.80;;
84923;SDS011;75286;52.218;5.180;2024-02-23T14:23:12;4.20;;;0.75;;
84923;SDS011;75286;52.218;5.180;2024-02-23T14:25:37;5.35;;;0.98;;
84923;SDS011;75286;52.218;5.180;2024-02-23T14:28:03;3.17;;;0.90;;
84923;SDS011;75286;52.218;5.180;2024-02-23T14:30:28;4.93;;;1.20;;
84923;SDS011;75286;52.218;5.180;2024-02-23T14:32:54;2.47;;;1.10;;
84923;SDS011;75286;52.218;5.180;2024-02-23T14:35:19;3.33;;;1.05;;
84923;SDS011;75286;52.218;5.180;2024-02-23T14:37:45;3.72;;;1.15;;
84923;SDS011;75286;52.218;5.180;2024-02-23T14:40:10;3.00;;;1.42;;
84923;SDS011;75286;52.218;5.180;2024-02-23T14:42:36;3.92;;;1.10;;